sensor_id;sensor_type;location;lat;lon;timestamp;P1;durP1;ratioP1;P2;durP2;ratioP2
52668;SDS011;59898;52.786;6.892;2023-02-15T00:01:34;50.78;;;35.65;;
52668;SDS011;59898;52.786;6.892;2023-02-15T00:04:56;49.20;;;34.83;;
52668;SDS011;59898;52.786;6.892;2023-02-15T00:08:16;48.15;;;34.83;;
52668;SDS011;59898;52.786;6.892;2023-02-15T00:11:37;46.50;;;34.65;;
52668;SDS011;59898;52.786;6.892;2023-02-15T00:15:10;46.60;;;32.70;;
52668;SDS011;59898;52.786;6.892;2023-02-15T00:18:32;47.80;;;33.72;;
52668;SDS011;59898;52.786;6.892;2023-02-15T00:21:53;41.72;;;30.65;;
52668;SDS011;59898;52.786;6.892;2023-02-15T00:25:14;44.85;;;32.38;;
52668;SDS011;59898;52.786;6.892;2023-02-15T00:28:35;45.33;;;33.90;;
52668;SDS011;59898;52.786;6.892;2023-02-15T00:31:56;52.38;;;37.75;;
52668;SDS011;59898;52.786;6.892;2023-02-15T00:35:16;49.40;;;36.42;;
52668;SDS011;59898;52.786;6.892;2023-02-15T00:38:37;49.58;;;33.75;;
52668;SDS011;59898;52.786;6.892;2023-02-15T00:41:58;52.47;;;39.45;;
52668;SDS011;59898;52.786;6.892;2023-02-15T00:45:18;45.67;;;34.42;;
52668;SDS011;59898;52.786;6.892;2023-02-15T00:48:41;46.67;;;35.03;;
52668;SDS011;59898;52.786;6.892;2023-02-15T00:52:02;49.83;;;38.35;;
52668;SDS011;59898;52.786;6.892;2023-02-15T00:55:22;52.22;;;37.72;;
52668;SDS011;59898;52.786;6.892;2023-02-15T00:58:43;56.08;;;37.72;;
52668;SDS011;59898;52.786;6.892;2023-02-15T01:02:04;42.42;;;32.35;;
52668;SDS011;59898;52.786;6.892;2023-02-15T01:05:24;46.47;;;33.00;;
52668;SDS011;59898;52.786;6.892;2023-02-15T01:08:45;38.67;;;30.50;;
52668;SDS011;59898;52.786;6.892;2023-02-15T01:12:06;42.85;;;30.88;;
52668;SDS011;59898;52.786;6.892;2023-02-15T01:15:28;39.85;;;28.58;;
52668;SDS011;59898;52.786;6.892;2023-02-15T01:18:49;40.83;;;30.27;;
52668;SDS011;59898;52.786;6.892;2023-02-15T01:22:10;42.25;;;33.35;;
52668;SDS011;59898;52.786;6.892;2023-02-15T01:25:32;40.40;;;30.42;;
52668;SDS011;59898;52.786;6.892;2023-02-15T01:28:53;49.55;;;34.95;;
52668;SDS011;59898;52.786;6.892;2023-02-15T01:32:14;38.15;;;28.73;;
52668;SDS011;59898;52.786;6.892;2023-02-15T01:35:36;45.80;;;31.13;;
52668;SDS011;59898;52.786;6.892;2023-02-15T01:38:57;43.97;;;30.55;;
52668;SDS011;59898;52.786;6.892;2023-02-15T01:42:21;45.17;;;31.70;;
52668;SDS011;59898;52.786;6.892;2023-02-15T01:45:43;51.30;;;36.58;;
52668;SDS011;59898;52.786;6.892;2023-02-15T01:49:17;55.13;;;39.85;;
52668;SDS011;59898;52.786;6.892;2023-02-15T01:52:41;47.90;;;35.75;;
52668;SDS011;59898;52.786;6.892;2023-02-15T01:56:11;58.40;;;38.08;;
52668;SDS011;59898;52.786;6.892;2023-02-15T01:59:37;52.75;;;36.60;;
52668;SDS011;59898;52.786;6.892;2023-02-15T02:03:01;46.58;;;34.28;;
52668;SDS011;59898;52.786;6.892;2023-02-15T02:06:23;52.40;;;36.83;;
52668;SDS011;59898;52.786;6.892;2023-02-15T02:09:46;55.17;;;38.90;;
52668;SDS011;59898;52.786;6.892;2023-02-15T02:13:08;57.83;;;40.35;;
52668;SDS011;59898;52.786;6.892;2023-02-15T02:24:00;58.13;;;41.17;;
52668;SDS011;59898;52.786;6.892;2023-02-15T02:27:34;55.22;;;40.67;;
52668;SDS011;59898;52.786;6.892;2023-02-15T02:38:57;51.30;;;37.25;;
52668;SDS011;59898;52.786;6.892;2023-02-15T02:45:53;49.03;;;36.47;;
52668;SDS011;59898;52.786;6.892;2023-02-15T02:49:39;56.10;;;37.63;;
52668;SDS011;59898;52.786;6.892;2023-02-15T02:53:02;55.20;;;38.72;;
52668;SDS011;59898;52.786;6.892;2023-02-15T02:56:24;50.53;;;36.28;;
52668;SDS011;59898;52.786;6.892;2023-02-15T03:00:03;55.95;;;39.50;;
52668;SDS011;59898;52.786;6.892;2023-02-15T03:03:27;52.72;;;36.60;;
52668;SDS011;59898;52.786;6.892;2023-02-15T03:06:56;49.42;;;38.22;;
52668;SDS011;59898;52.786;6.892;2023-02-15T03:10:21;50.05;;;36.20;;
52668;SDS011;59898;52.786;6.892;2023-02-15T03:13:44;45.08;;;35.30;;
52668;SDS011;59898;52.786;6.892;2023-02-15T03:17:07;46.40;;;35.83;;
52668;SDS011;59898;52.786;6.892;2023-02-15T03:20:30;46.28;;;34.00;;
52668;SDS011;59898;52.786;6.892;2023-02-15T03:24:01;41.75;;;32.83;;
52668;SDS011;59898;52.786;6.892;2023-02-15T03:27:31;43.28;;;33.55;;
52668;SDS011;59898;52.786;6.892;2023-02-15T03:31:00;40.75;;;33.30;;
52668;SDS011;59898;52.786;6.892;2023-02-15T03:34:24;44.65;;;33.70;;
52668;SDS011;59898;52.786;6.892;2023-02-15T03:37:53;40.38;;;31.20;;
52668;SDS011;59898;52.786;6.892;2023-02-15T03:41:19;44.33;;;30.60;;
52668;SDS011;59898;52.786;6.892;2023-02-15T03:44:47;44.63;;;32.47;;
52668;SDS011;59898;52.786;6.892;2023-02-15T03:48:11;40.10;;;31.42;;
52668;SDS011;59898;52.786;6.892;2023-02-15T03:51:33;49.95;;;32.88;;
52668;SDS011;59898;52.786;6.892;2023-02-15T03:54:57;42.00;;;33.00;;
52668;SDS011;59898;52.786;6.892;2023-02-15T03:58:19;49.97;;;38.25;;
52668;SDS011;59898;52.786;6.892;2023-02-15T04:05:24;52.00;;;37.65;;
52668;SDS011;59898;52.786;6.892;2023-02-15T04:08:45;50.40;;;37.90;;
52668;SDS011;59898;52.786;6.892;2023-02-15T04:12:24;52.70;;;40.05;;
52668;SDS011;59898;52.786;6.892;2023-02-15T04:15:45;58.42;;;41.35;;
52668;SDS011;59898;52.786;6.892;2023-02-15T04:19:24;52.47;;;41.53;;
52668;SDS011;59898;52.786;6.892;2023-02-15T04:23:05;61.30;;;43.20;;
52668;SDS011;59898;52.786;6.892;2023-02-15T04:26:45;50.35;;;39.33;;
52668;SDS011;59898;52.786;6.892;2023-02-15T04:30:08;55.10;;;41.47;;
52668;SDS011;59898;52.786;6.892;2023-02-15T04:33:29;45.35;;;36.28;;
52668;SDS011;59898;52.786;6.892;2023-02-15T04:36:50;51.47;;;39.03;;
52668;SDS011;59898;52.786;6.892;2023-02-15T04:40:12;53.42;;;37.90;;
52668;SDS011;59898;52.786;6.892;2023-02-15T04:43:33;46.08;;;38.50;;
52668;SDS011;59898;52.786;6.892;2023-02-15T04:46:54;50.88;;;36.78;;
52668;SDS011;59898;52.786;6.892;2023-02-15T04:50:15;52.97;;;37.25;;
52668;SDS011;59898;52.786;6.892;2023-02-15T04:53:36;45.53;;;35.92;;
52668;SDS011;59898;52.786;6.892;2023-02-15T04:56:56;47.00;;;36.30;;
52668;SDS011;59898;52.786;6.892;2023-02-15T05:00:17;46.42;;;35.95;;
52668;SDS011;59898;52.786;6.892;2023-02-15T05:03:38;49.33;;;36.55;;
52668;SDS011;59898;52.786;6.892;2023-02-15T05:06:59;44.00;;;35.05;;
52668;SDS011;59898;52.786;6.892;2023-02-15T05:10:20;48.08;;;33.67;;
52668;SDS011;59898;52.786;6.892;2023-02-15T05:13:40;42.67;;;33.13;;
52668;SDS011;59898;52.786;6.892;2023-02-15T05:17:01;41.78;;;35.50;;
52668;SDS011;59898;52.786;6.892;2023-02-15T05:20:23;44.35;;;35.35;;
52668;SDS011;59898;52.786;6.892;2023-02-15T05:23:43;43.72;;;33.08;;
52668;SDS011;59898;52.786;6.892;2023-02-15T05:27:04;45.80;;;35.20;;
52668;SDS011;59898;52.786;6.892;2023-02-15T05:30:43;45.90;;;33.63;;
52668;SDS011;59898;52.786;6.892;2023-02-15T05:34:04;44.53;;;33.97;;
52668;SDS011;59898;52.786;6.892;2023-02-15T05:37:25;49.13;;;34.22;;
52668;SDS011;59898;52.786;6.892;2023-02-15T05:40:45;44.90;;;32.65;;
52668;SDS011;59898;52.786;6.892;2023-02-15T05:44:06;47.03;;;31.60;;
52668;SDS011;59898;52.786;6.892;2023-02-15T05:47:27;41.80;;;30.60;;
52668;SDS011;59898;52.786;6.892;2023-02-15T05:50:56;43.35;;;30.25;;
52668;SDS011;59898;52.786;6.892;2023-02-15T05:54:25;46.03;;;31.30;;
52668;SDS011;59898;52.786;6.892;2023-02-15T05:57:46;42.92;;;30.85;;
52668;SDS011;59898;52.786;6.892;2023-02-15T06:01:07;47.35;;;30.17;;
52668;SDS011;59898;52.786;6.892;2023-02-15T06:04:32;47.78;;;33.42;;
52668;SDS011;59898;52.786;6.892;2023-02-15T06:07:53;45.90;;;29.88;;
52668;SDS011;59898;52.786;6.892;2023-02-15T06:11:14;41.20;;;28.27;;
52668;SDS011;59898;52.786;6.892;2023-02-15T06:14:34;41.15;;;30.50;;
52668;SDS011;59898;52.786;6.892;2023-02-15T06:17:55;45.80;;;29.52;;
52668;SDS011;59898;52.786;6.892;2023-02-15T06:21:16;47.63;;;29.05;;
52668;SDS011;59898;52.786;6.892;2023-02-15T06:24:36;40.80;;;30.17;;
52668;SDS011;59898;52.786;6.892;2023-02-15T06:27:57;43.80;;;32.75;;
52668;SDS011;59898;52.786;6.892;2023-02-15T06:31:17;42.35;;;30.85;;
52668;SDS011;59898;52.786;6.892;2023-02-15T06:34:38;47.67;;;32.50;;
52668;SDS011;59898;52.786;6.892;2023-02-15T06:37:59;47.03;;;33.17;;
52668;SDS011;59898;52.786;6.892;2023-02-15T06:41:20;43.40;;;30.88;;
52668;SDS011;59898;52.786;6.892;2023-02-15T06:44:41;42.22;;;31.02;;
52668;SDS011;59898;52.786;6.892;2023-02-15T06:48:01;42.00;;;30.48;;
52668;SDS011;59898;52.786;6.892;2023-02-15T06:51:22;43.72;;;29.90;;
52668;SDS011;59898;52.786;6.892;2023-02-15T06:54:43;42.03;;;31.08;;
52668;SDS011;59898;52.786;6.892;2023-02-15T06:58:03;44.90;;;31.75;;
52668;SDS011;59898;52.786;6.892;2023-02-15T07:01:24;46.45;;;31.17;;
52668;SDS011;59898;52.786;6.892;2023-02-15T07:04:45;44.85;;;33.13;;
52668;SDS011;59898;52.786;6.892;2023-02-15T07:08:05;43.70;;;30.65;;
52668;SDS011;59898;52.786;6.892;2023-02-15T07:11:26;44.50;;;31.65;;
52668;SDS011;59898;52.786;6.892;2023-02-15T07:15:07;47.35;;;32.03;;
52668;SDS011;59898;52.786;6.892;2023-02-15T07:18:29;45.17;;;32.85;;
52668;SDS011;59898;52.786;6.892;2023-02-15T07:21:49;45.15;;;32.72;;
52668;SDS011;59898;52.786;6.892;2023-02-15T07:25:10;48.38;;;33.40;;
52668;SDS011;59898;52.786;6.892;2023-02-15T07:28:33;44.60;;;31.38;;
52668;SDS011;59898;52.786;6.892;2023-02-15T07:31:54;45.58;;;32.47;;
52668;SDS011;59898;52.786;6.892;2023-02-15T07:35:15;39.72;;;28.70;;
52668;SDS011;59898;52.786;6.892;2023-02-15T07:38:36;42.03;;;28.98;;
52668;SDS011;59898;52.786;6.892;2023-02-15T07:41:59;41.28;;;28.33;;
52668;SDS011;59898;52.786;6.892;2023-02-15T07:45:23;37.28;;;26.58;;
52668;SDS011;59898;52.786;6.892;2023-02-15T07:48:45;41.90;;;26.65;;
52668;SDS011;59898;52.786;6.892;2023-02-15T07:52:05;32.53;;;23.02;;
52668;SDS011;59898;52.786;6.892;2023-02-15T07:55:26;37.63;;;23.65;;
52668;SDS011;59898;52.786;6.892;2023-02-15T07:58:47;31.27;;;22.75;;
52668;SDS011;59898;52.786;6.892;2023-02-15T08:02:10;32.33;;;23.08;;
52668;SDS011;59898;52.786;6.892;2023-02-15T08:05:31;31.92;;;21.38;;
52668;SDS011;59898;52.786;6.892;2023-02-15T08:08:52;30.08;;;22.77;;
52668;SDS011;59898;52.786;6.892;2023-02-15T08:12:13;32.05;;;21.73;;
52668;SDS011;59898;52.786;6.892;2023-02-15T08:15:34;36.15;;;24.08;;
52668;SDS011;59898;52.786;6.892;2023-02-15T08:18:55;30.77;;;22.08;;
52668;SDS011;59898;52.786;6.892;2023-02-15T08:22:20;26.77;;;20.50;;
52668;SDS011;59898;52.786;6.892;2023-02-15T08:25:40;32.42;;;21.25;;
52668;SDS011;59898;52.786;6.892;2023-02-15T08:29:01;30.25;;;19.73;;
52668;SDS011;59898;52.786;6.892;2023-02-15T08:32:22;33.13;;;23.20;;
52668;SDS011;59898;52.786;6.892;2023-02-15T08:35:43;38.03;;;22.48;;
52668;SDS011;59898;52.786;6.892;2023-02-15T08:39:04;32.38;;;22.73;;
52668;SDS011;59898;52.786;6.892;2023-02-15T08:42:25;31.10;;;20.58;;
52668;SDS011;59898;52.786;6.892;2023-02-15T08:45:46;37.72;;;21.95;;
52668;SDS011;59898;52.786;6.892;2023-02-15T08:49:07;28.80;;;21.90;;
52668;SDS011;59898;52.786;6.892;2023-02-15T08:52:29;30.15;;;21.60;;
52668;SDS011;59898;52.786;6.892;2023-02-15T08:55:56;35.80;;;23.35;;
52668;SDS011;59898;52.786;6.892;2023-02-15T08:59:21;31.88;;;23.88;;
52668;SDS011;59898;52.786;6.892;2023-02-15T09:02:42;34.28;;;22.48;;
52668;SDS011;59898;52.786;6.892;2023-02-15T09:06:03;35.65;;;23.42;;
52668;SDS011;59898;52.786;6.892;2023-02-15T09:09:25;32.47;;;21.60;;
52668;SDS011;59898;52.786;6.892;2023-02-15T09:12:45;34.83;;;24.95;;
52668;SDS011;59898;52.786;6.892;2023-02-15T09:16:07;33.83;;;23.80;;
52668;SDS011;59898;52.786;6.892;2023-02-15T09:19:28;37.47;;;25.30;;
52668;SDS011;59898;52.786;6.892;2023-02-15T09:22:49;39.40;;;24.60;;
52668;SDS011;59898;52.786;6.892;2023-02-15T09:26:13;37.50;;;24.75;;
52668;SDS011;59898;52.786;6.892;2023-02-15T09:29:35;37.08;;;25.85;;
52668;SDS011;59898;52.786;6.892;2023-02-15T09:32:56;32.92;;;23.52;;
52668;SDS011;59898;52.786;6.892;2023-02-15T09:36:21;32.38;;;23.58;;
52668;SDS011;59898;52.786;6.892;2023-02-15T09:39:42;35.40;;;23.50;;
52668;SDS011;59898;52.786;6.892;2023-02-15T09:46:38;36.10;;;25.73;;
52668;SDS011;59898;52.786;6.892;2023-02-15T09:57:45;36.70;;;26.05;;
52668;SDS011;59898;52.786;6.892;2023-02-15T10:04:59;36.53;;;25.52;;
52668;SDS011;59898;52.786;6.892;2023-02-15T10:08:57;36.88;;;25.58;;
52668;SDS011;59898;52.786;6.892;2023-02-15T10:16:13;36.67;;;24.88;;
52668;SDS011;59898;52.786;6.892;2023-02-15T10:26:45;36.47;;;25.05;;
52668;SDS011;59898;52.786;6.892;2023-02-15T10:30:08;37.22;;;25.48;;
52668;SDS011;59898;52.786;6.892;2023-02-15T10:33:40;33.15;;;25.02;;
52668;SDS011;59898;52.786;6.892;2023-02-15T10:48:13;38.67;;;26.60;;
52668;SDS011;59898;52.786;6.892;2023-02-15T11:02:49;38.63;;;28.38;;
52668;SDS011;59898;52.786;6.892;2023-02-15T11:06:19;42.97;;;27.20;;
52668;SDS011;59898;52.786;6.892;2023-02-15T11:09:46;35.70;;;25.70;;
52668;SDS011;59898;52.786;6.892;2023-02-15T11:13:17;50.42;;;32.65;;
52668;SDS011;59898;52.786;6.892;2023-02-15T11:16:40;41.35;;;28.13;;
52668;SDS011;59898;52.786;6.892;2023-02-15T11:23:45;34.28;;;24.77;;
52668;SDS011;59898;52.786;6.892;2023-02-15T11:27:24;36.63;;;27.05;;
52668;SDS011;59898;52.786;6.892;2023-02-15T11:30:53;40.00;;;26.38;;
52668;SDS011;59898;52.786;6.892;2023-02-15T11:34:18;33.72;;;25.02;;
52668;SDS011;59898;52.786;6.892;2023-02-15T11:38:01;38.30;;;26.60;;
52668;SDS011;59898;52.786;6.892;2023-02-15T11:41:34;41.20;;;28.75;;
52668;SDS011;59898;52.786;6.892;2023-02-15T11:48:22;38.08;;;27.10;;
52668;SDS011;59898;52.786;6.892;2023-02-15T11:51:43;38.60;;;26.95;;
52668;SDS011;59898;52.786;6.892;2023-02-15T11:55:09;38.20;;;26.77;;
52668;SDS011;59898;52.786;6.892;2023-02-15T11:58:39;38.13;;;28.40;;
52668;SDS011;59898;52.786;6.892;2023-02-15T12:02:20;42.45;;;27.90;;
52668;SDS011;59898;52.786;6.892;2023-02-15T12:05:42;38.92;;;28.95;;
52668;SDS011;59898;52.786;6.892;2023-02-15T12:13:12;37.95;;;27.10;;
52668;SDS011;59898;52.786;6.892;2023-02-15T12:16:40;45.80;;;27.65;;
52668;SDS011;59898;52.786;6.892;2023-02-15T12:23:34;38.03;;;26.33;;
52668;SDS011;59898;52.786;6.892;2023-02-15T12:27:18;42.25;;;27.10;;
52668;SDS011;59898;52.786;6.892;2023-02-15T12:30:42;37.83;;;25.45;;
52668;SDS011;59898;52.786;6.892;2023-02-15T12:34:04;44.85;;;27.42;;
52668;SDS011;59898;52.786;6.892;2023-02-15T12:37:32;40.83;;;25.38;;
52668;SDS011;59898;52.786;6.892;2023-02-15T12:40:58;34.10;;;23.80;;
52668;SDS011;59898;52.786;6.892;2023-02-15T12:44:25;40.67;;;25.30;;
52668;SDS011;59898;52.786;6.892;2023-02-15T12:47:53;36.15;;;25.25;;
52668;SDS011;59898;52.786;6.892;2023-02-15T12:51:28;41.60;;;26.38;;
52668;SDS011;59898;52.786;6.892;2023-02-15T12:54:49;39.20;;;26.50;;
52668;SDS011;59898;52.786;6.892;2023-02-15T12:58:15;40.80;;;25.30;;
52668;SDS011;59898;52.786;6.892;2023-02-15T13:01:43;43.45;;;25.73;;
52668;SDS011;59898;52.786;6.892;2023-02-15T13:08:56;34.38;;;23.90;;
52668;SDS011;59898;52.786;6.892;2023-02-15T13:12:25;37.72;;;23.85;;
52668;SDS011;59898;52.786;6.892;2023-02-15T13:15:50;39.72;;;24.35;;
52668;SDS011;59898;52.786;6.892;2023-02-15T13:19:18;37.03;;;24.00;;
52668;SDS011;59898;52.786;6.892;2023-02-15T13:22:44;36.50;;;23.25;;
52668;SDS011;59898;52.786;6.892;2023-02-15T13:26:10;33.13;;;22.33;;
52668;SDS011;59898;52.786;6.892;2023-02-15T13:29:36;38.05;;;24.23;;
52668;SDS011;59898;52.786;6.892;2023-02-15T13:32:59;37.90;;;24.25;;
52668;SDS011;59898;52.786;6.892;2023-02-15T13:36:34;38.53;;;23.60;;
52668;SDS011;59898;52.786;6.892;2023-02-15T13:59:16;37.88;;;22.80;;
52668;SDS011;59898;52.786;6.892;2023-02-15T14:17:23;36.67;;;24.45;;
52668;SDS011;59898;52.786;6.892;2023-02-15T14:24:43;35.80;;;22.60;;
52668;SDS011;59898;52.786;6.892;2023-02-15T14:28:13;36.22;;;23.42;;
52668;SDS011;59898;52.786;6.892;2023-02-15T14:31:38;34.88;;;21.58;;
52668;SDS011;59898;52.786;6.892;2023-02-15T14:35:04;35.95;;;22.70;;
52668;SDS011;59898;52.786;6.892;2023-02-15T14:38:38;35.72;;;23.67;;
52668;SDS011;59898;52.786;6.892;2023-02-15T14:42:24;35.17;;;21.75;;
52668;SDS011;59898;52.786;6.892;2023-02-15T14:49:23;41.72;;;23.88;;
52668;SDS011;59898;52.786;6.892;2023-02-15T14:53:14;37.35;;;23.52;;
52668;SDS011;59898;52.786;6.892;2023-02-15T14:56:44;37.17;;;22.83;;
52668;SDS011;59898;52.786;6.892;2023-02-15T15:00:28;35.33;;;21.63;;
52668;SDS011;59898;52.786;6.892;2023-02-15T15:03:57;37.63;;;21.92;;
52668;SDS011;59898;52.786;6.892;2023-02-15T15:07:22;36.00;;;22.33;;
52668;SDS011;59898;52.786;6.892;2023-02-15T15:10:45;36.25;;;22.58;;
52668;SDS011;59898;52.786;6.892;2023-02-15T15:14:08;33.20;;;20.88;;
52668;SDS011;59898;52.786;6.892;2023-02-15T15:20:59;42.38;;;23.40;;
52668;SDS011;59898;52.786;6.892;2023-02-15T15:27:59;35.72;;;22.65;;
52668;SDS011;59898;52.786;6.892;2023-02-15T15:31:21;36.80;;;23.33;;
52668;SDS011;59898;52.786;6.892;2023-02-15T15:34:51;43.38;;;25.33;;
52668;SDS011;59898;52.786;6.892;2023-02-15T15:46:13;38.58;;;21.85;;
52668;SDS011;59898;52.786;6.892;2023-02-15T15:49:50;43.88;;;24.60;;
52668;SDS011;59898;52.786;6.892;2023-02-15T15:53:18;42.05;;;21.38;;
52668;SDS011;59898;52.786;6.892;2023-02-15T15:56:43;34.95;;;21.23;;
52668;SDS011;59898;52.786;6.892;2023-02-15T16:03:50;36.90;;;22.10;;
52668;SDS011;59898;52.786;6.892;2023-02-15T16:07:34;39.58;;;23.33;;
52668;SDS011;59898;52.786;6.892;2023-02-15T16:10:53;35.58;;;22.50;;
52668;SDS011;59898;52.786;6.892;2023-02-15T16:14:16;35.20;;;22.95;;
52668;SDS011;59898;52.786;6.892;2023-02-15T16:17:44;37.17;;;23.55;;
52668;SDS011;59898;52.786;6.892;2023-02-15T16:21:15;39.15;;;23.35;;
52668;SDS011;59898;52.786;6.892;2023-02-15T16:28:18;39.50;;;23.65;;
52668;SDS011;59898;52.786;6.892;2023-02-15T16:31:40;35.42;;;21.25;;
52668;SDS011;59898;52.786;6.892;2023-02-15T16:35:02;34.58;;;22.23;;
52668;SDS011;59898;52.786;6.892;2023-02-15T16:42:06;40.13;;;24.58;;
52668;SDS011;59898;52.786;6.892;2023-02-15T16:45:28;41.58;;;25.02;;
52668;SDS011;59898;52.786;6.892;2023-02-15T16:48:52;36.05;;;23.48;;
52668;SDS011;59898;52.786;6.892;2023-02-15T16:52:19;41.33;;;23.88;;
52668;SDS011;59898;52.786;6.892;2023-02-15T16:55:43;40.00;;;24.20;;
52668;SDS011;59898;52.786;6.892;2023-02-15T16:59:14;35.13;;;23.70;;
52668;SDS011;59898;52.786;6.892;2023-02-15T17:02:59;39.40;;;23.45;;
52668;SDS011;59898;52.786;6.892;2023-02-15T17:06:26;37.13;;;23.40;;
52668;SDS011;59898;52.786;6.892;2023-02-15T17:09:58;40.72;;;24.90;;
52668;SDS011;59898;52.786;6.892;2023-02-15T17:13:19;40.75;;;23.67;;
52668;SDS011;59898;52.786;6.892;2023-02-15T17:20:12;39.35;;;25.77;;
52668;SDS011;59898;52.786;6.892;2023-02-15T17:23:48;41.33;;;24.30;;
52668;SDS011;59898;52.786;6.892;2023-02-15T17:27:14;39.63;;;25.25;;
52668;SDS011;59898;52.786;6.892;2023-02-15T17:30:44;58.97;;;25.15;;
52668;SDS011;59898;52.786;6.892;2023-02-15T17:34:09;42.05;;;26.20;;
52668;SDS011;59898;52.786;6.892;2023-02-15T17:38:17;48.10;;;26.75;;
52668;SDS011;59898;52.786;6.892;2023-02-15T17:41:39;39.97;;;26.00;;
52668;SDS011;59898;52.786;6.892;2023-02-15T17:45:01;40.17;;;25.55;;
52668;SDS011;59898;52.786;6.892;2023-02-15T17:51:53;42.28;;;26.52;;
52668;SDS011;59898;52.786;6.892;2023-02-15T17:55:14;39.95;;;24.52;;
52668;SDS011;59898;52.786;6.892;2023-02-15T17:58:57;43.97;;;25.35;;
52668;SDS011;59898;52.786;6.892;2023-02-15T18:02:18;38.35;;;25.15;;
52668;SDS011;59898;52.786;6.892;2023-02-15T18:05:57;40.80;;;26.30;;
52668;SDS011;59898;52.786;6.892;2023-02-15T18:09:37;41.60;;;27.42;;
52668;SDS011;59898;52.786;6.892;2023-02-15T18:13:16;38.05;;;25.63;;
52668;SDS011;59898;52.786;6.892;2023-02-15T18:16:41;37.42;;;24.17;;
52668;SDS011;59898;52.786;6.892;2023-02-15T18:20:06;38.72;;;25.88;;
52668;SDS011;59898;52.786;6.892;2023-02-15T18:23:40;38.25;;;25.85;;
52668;SDS011;59898;52.786;6.892;2023-02-15T18:27:03;41.97;;;23.88;;
52668;SDS011;59898;52.786;6.892;2023-02-15T18:30:24;38.92;;;24.40;;
52668;SDS011;59898;52.786;6.892;2023-02-15T18:33:55;38.88;;;24.92;;
52668;SDS011;59898;52.786;6.892;2023-02-15T18:37:18;38.67;;;26.02;;
52668;SDS011;59898;52.786;6.892;2023-02-15T18:40:41;39.00;;;25.98;;
52668;SDS011;59898;52.786;6.892;2023-02-15T18:44:01;35.25;;;25.63;;
52668;SDS011;59898;52.786;6.892;2023-02-15T18:47:22;40.67;;;25.08;;
52668;SDS011;59898;52.786;6.892;2023-02-15T18:50:43;40.00;;;25.13;;
52668;SDS011;59898;52.786;6.892;2023-02-15T18:54:05;42.45;;;26.25;;
52668;SDS011;59898;52.786;6.892;2023-02-15T18:57:33;37.58;;;25.30;;
52668;SDS011;59898;52.786;6.892;2023-02-15T19:00:54;37.65;;;25.65;;
52668;SDS011;59898;52.786;6.892;2023-02-15T19:04:17;41.33;;;28.15;;
52668;SDS011;59898;52.786;6.892;2023-02-15T19:07:38;41.63;;;26.35;;
52668;SDS011;59898;52.786;6.892;2023-02-15T19:11:00;42.50;;;27.77;;
52668;SDS011;59898;52.786;6.892;2023-02-15T19:14:25;38.45;;;26.55;;
52668;SDS011;59898;52.786;6.892;2023-02-15T19:17:50;44.55;;;26.02;;
52668;SDS011;59898;52.786;6.892;2023-02-15T19:21:14;37.78;;;23.73;;
52668;SDS011;59898;52.786;6.892;2023-02-15T19:24:38;36.35;;;24.80;;
52668;SDS011;59898;52.786;6.892;2023-02-15T19:28:02;39.00;;;25.98;;
52668;SDS011;59898;52.786;6.892;2023-02-15T19:31:29;42.08;;;26.35;;
52668;SDS011;59898;52.786;6.892;2023-02-15T19:34:49;41.35;;;26.42;;
52668;SDS011;59898;52.786;6.892;2023-02-15T19:38:13;39.90;;;26.42;;
52668;SDS011;59898;52.786;6.892;2023-02-15T19:41:39;33.35;;;23.58;;
52668;SDS011;59898;52.786;6.892;2023-02-15T19:45:04;37.67;;;26.10;;
52668;SDS011;59898;52.786;6.892;2023-02-15T19:48:32;35.20;;;24.85;;
52668;SDS011;59898;52.786;6.892;2023-02-15T19:51:52;42.50;;;26.08;;
52668;SDS011;59898;52.786;6.892;2023-02-15T19:55:23;45.03;;;26.48;;
52668;SDS011;59898;52.786;6.892;2023-02-15T19:58:44;35.88;;;25.90;;
52668;SDS011;59898;52.786;6.892;2023-02-15T20:02:05;40.17;;;27.83;;
52668;SDS011;59898;52.786;6.892;2023-02-15T20:05:30;38.83;;;27.73;;
52668;SDS011;59898;52.786;6.892;2023-02-15T20:08:53;36.28;;;25.95;;
52668;SDS011;59898;52.786;6.892;2023-02-15T20:12:22;40.42;;;26.77;;
52668;SDS011;59898;52.786;6.892;2023-02-15T20:15:44;41.30;;;27.17;;
52668;SDS011;59898;52.786;6.892;2023-02-15T20:19:05;41.35;;;28.15;;
52668;SDS011;59898;52.786;6.892;2023-02-15T20:22:25;42.75;;;28.08;;
52668;SDS011;59898;52.786;6.892;2023-02-15T20:25:48;38.42;;;30.20;;
52668;SDS011;59898;52.786;6.892;2023-02-15T20:29:13;43.63;;;26.75;;
52668;SDS011;59898;52.786;6.892;2023-02-15T20:32:34;48.42;;;28.52;;
52668;SDS011;59898;52.786;6.892;2023-02-15T20:35:55;42.03;;;28.15;;
52668;SDS011;59898;52.786;6.892;2023-02-15T20:39:17;41.30;;;29.15;;
52668;SDS011;59898;52.786;6.892;2023-02-15T20:42:39;40.17;;;28.27;;
52668;SDS011;59898;52.786;6.892;2023-02-15T20:46:00;44.85;;;29.52;;
52668;SDS011;59898;52.786;6.892;2023-02-15T20:49:22;45.95;;;29.35;;
52668;SDS011;59898;52.786;6.892;2023-02-15T20:52:44;46.28;;;27.60;;
52668;SDS011;59898;52.786;6.892;2023-02-15T20:56:08;49.92;;;30.88;;
52668;SDS011;59898;52.786;6.892;2023-02-15T20:59:39;43.90;;;28.42;;
52668;SDS011;59898;52.786;6.892;2023-02-15T21:03:00;41.00;;;29.25;;
52668;SDS011;59898;52.786;6.892;2023-02-15T21:06:21;43.10;;;27.73;;
52668;SDS011;59898;52.786;6.892;2023-02-15T21:09:43;47.83;;;28.00;;
52668;SDS011;59898;52.786;6.892;2023-02-15T21:13:04;44.58;;;29.70;;
52668;SDS011;59898;52.786;6.892;2023-02-15T21:16:24;46.83;;;30.70;;
52668;SDS011;59898;52.786;6.892;2023-02-15T21:19:45;48.13;;;27.75;;
52668;SDS011;59898;52.786;6.892;2023-02-15T21:23:06;44.25;;;27.33;;
52668;SDS011;59898;52.786;6.892;2023-02-15T21:26:32;46.10;;;30.67;;
52668;SDS011;59898;52.786;6.892;2023-02-15T21:29:53;44.47;;;29.50;;
52668;SDS011;59898;52.786;6.892;2023-02-15T21:33:14;42.88;;;30.05;;
52668;SDS011;59898;52.786;6.892;2023-02-15T21:36:35;52.78;;;31.80;;
52668;SDS011;59898;52.786;6.892;2023-02-15T21:39:56;46.63;;;30.65;;
52668;SDS011;59898;52.786;6.892;2023-02-15T21:43:19;46.13;;;29.70;;
52668;SDS011;59898;52.786;6.892;2023-02-15T21:47:00;47.33;;;29.83;;
52668;SDS011;59898;52.786;6.892;2023-02-15T21:50:39;42.90;;;30.60;;
52668;SDS011;59898;52.786;6.892;2023-02-15T21:54:19;46.60;;;29.33;;
52668;SDS011;59898;52.786;6.892;2023-02-15T21:57:40;48.30;;;29.67;;
52668;SDS011;59898;52.786;6.892;2023-02-15T22:01:01;45.42;;;28.80;;
52668;SDS011;59898;52.786;6.892;2023-02-15T22:04:26;43.08;;;28.58;;
52668;SDS011;59898;52.786;6.892;2023-02-15T22:07:48;47.08;;;31.80;;
52668;SDS011;59898;52.786;6.892;2023-02-15T22:11:13;43.25;;;29.02;;
52668;SDS011;59898;52.786;6.892;2023-02-15T22:14:36;47.58;;;29.73;;
52668;SDS011;59898;52.786;6.892;2023-02-15T22:17:59;43.83;;;30.55;;
52668;SDS011;59898;52.786;6.892;2023-02-15T22:21:19;45.80;;;28.30;;
52668;SDS011;59898;52.786;6.892;2023-02-15T22:24:41;43.83;;;27.73;;
52668;SDS011;59898;52.786;6.892;2023-02-15T22:28:03;52.40;;;29.90;;
52668;SDS011;59898;52.786;6.892;2023-02-15T22:31:23;45.53;;;29.88;;
52668;SDS011;59898;52.786;6.892;2023-02-15T22:34:44;43.28;;;30.00;;
52668;SDS011;59898;52.786;6.892;2023-02-15T22:38:05;47.60;;;29.60;;
52668;SDS011;59898;52.786;6.892;2023-02-15T22:41:27;45.38;;;30.73;;